Time;durP1;ratioP1;P1;durP2;ratioP2;P2;SDS_P1;SDS_P2;PMS_P1;PMS_P2;Temp;Humidity;BMP_temperature;BMP_pressure;BME280_temperature;BME280_humidity;BME280_pressure;Samples;Min_cycle;Max_cycle;Signal;HPM_P1;HPM_P2
2024/04/08 00:00:56;;;;;;;13.20;4.15;;;25.80;99.90;;;;;;5053267;22;20049;-52
2024/04/08 00:03:22;;;;;;;8.82;3.92;;;25.80;99.90;;;;;;5041120;28;20035;-51
2024/04/08 00:05:48;;;;;;;8.45;4.15;;;25.80;99.90;;;;;;5041438;28;20032;-50
2024/04/08 00:08:14;;;;;;;6.20;3.58;;;25.80;99.90;;;;;;5038137;28;20437;-49
2024/04/08 00:10:39;;;;;;;8.80;4.03;;;25.80;99.90;;;;;;5040794;28;20449;-50
2024/04/08 00:13:05;;;;;;;8.73;4.18;;;25.80;99.90;;;;;;5036483;28;20362;-50
2024/04/08 00:15:31;;;;;;;8.52;2.88;;;25.80;99.90;;;;;;5033118;28;20031;-51
2024/04/08 00:17:57;;;;;;;10.70;3.80;;;25.80;99.90;;;;;;5034430;28;20017;-50
2024/04/08 00:20:23;;;;;;;9.52;3.38;;;25.80;99.90;;;;;;5039632;28;20469;-50
2024/04/08 00:22:52;;;;;;;5.95;3.15;;;25.80;99.90;;;;;;5043746;28;20096;-51
2024/04/08 00:25:18;;;;;;;7.30;3.72;;;25.80;99.90;;;;;;5034743;28;20230;-51
2024/04/08 00:27:44;;;;;;;7.38;3.92;;;25.70;99.90;;;;;;5031312;28;20152;-52
2024/04/08 00:30:11;;;;;;;7.90;3.92;;;25.70;99.90;;;;;;5032788;28;20120;-52
2024/04/08 00:32:37;;;;;;;6.20;2.90;;;25.70;99.90;;;;;;5032864;28;20033;-52
2024/04/08 00:35:05;;;;;;;6.30;3.53;;;25.70;99.90;;;;;;5032802;28;20100;-53
2024/04/08 00:37:31;;;;;;;5.32;3.15;;;25.70;99.90;;;;;;5032010;28;20030;-52
2024/04/08 00:39:57;;;;;;;6.40;2.42;;;25.70;99.90;;;;;;5033050;28;20511;-51
2024/04/08 00:42:23;;;;;;;5.88;3.10;;;25.70;99.90;;;;;;5032916;28;20068;-52
2024/04/08 00:44:48;;;;;;;8.52;3.00;;;25.70;99.90;;;;;;5032384;28;20092;-52
2024/04/08 00:47:14;;;;;;;6.82;3.13;;;25.70;99.90;;;;;;5036333;28;20107;-51
2024/04/08 00:49:42;;;;;;;7.30;3.33;;;25.60;99.90;;;;;;5041475;28;20031;-51
2024/04/08 00:52:13;;;;;;;9.13;2.95;;;25.70;99.90;;;;;;5041818;28;20099;-52
2024/04/08 00:54:39;;;;;;;6.85;2.90;;;25.70;99.90;;;;;;5041678;28;20017;-52
2024/04/08 00:57:08;;;;;;;6.78;3.00;;;25.60;99.90;;;;;;5042572;28;20032;-51
2024/04/08 00:59:35;;;;;;;6.50;3.20;;;25.70;99.90;;;;;;5031429;28;20021;-52
2024/04/08 01:02:01;;;;;;;5.70;2.35;;;25.60;99.90;;;;;;5032044;28;20096;-52
2024/04/08 01:04:30;;;;;;;6.03;3.33;;;25.60;99.90;;;;;;5032158;28;20373;-51
2024/04/08 01:06:56;;;;;;;8.13;2.70;;;25.60;99.90;;;;;;5032052;28;20424;-52
2024/04/08 01:09:22;;;;;;;5.82;2.97;;;25.60;99.90;;;;;;5029384;28;20025;-52
2024/04/08 01:11:48;;;;;;;7.50;2.85;;;25.60;99.90;;;;;;5031710;28;20020;-52
2024/04/08 01:14:14;;;;;;;7.00;2.58;;;25.60;99.90;;;;;;5031964;28;20382;-52
2024/04/08 01:16:39;;;;;;;6.72;3.22;;;25.60;99.90;;;;;;5030928;28;20101;-51
2024/04/08 01:19:05;;;;;;;7.20;2.45;;;25.60;99.90;;;;;;5029977;28;20025;-52
2024/04/08 01:21:31;;;;;;;5.68;2.65;;;25.60;99.90;;;;;;5031219;28;20512;-52
2024/04/08 01:23:57;;;;;;;4.60;2.10;;;25.60;99.90;;;;;;5031793;28;20382;-52
2024/04/08 01:26:23;;;;;;;8.60;3.22;;;25.50;99.90;;;;;;5031432;28;20025;-56
2024/04/08 01:28:50;;;;;;;8.50;2.85;;;25.50;99.90;;;;;;5031857;28;20028;-50
2024/04/08 01:31:16;;;;;;;6.22;2.55;;;25.50;99.90;;;;;;5031865;28;20409;-51
2024/04/08 01:33:42;;;;;;;5.28;3.03;;;25.50;99.90;;;;;;5030887;28;20025;-50
2024/04/08 01:36:11;;;;;;;4.50;2.25;;;25.50;99.90;;;;;;5031323;28;20100;-52
2024/04/08 01:38:39;;;;;;;7.65;3.08;;;25.50;99.90;;;;;;5031651;28;20079;-50
2024/04/08 01:41:05;;;;;;;5.72;2.08;;;25.50;99.90;;;;;;5030776;28;20072;-51
2024/04/08 01:43:31;;;;;;;7.32;2.88;;;25.50;99.90;;;;;;5031359;28;20095;-51
2024/04/08 01:45:57;;;;;;;5.38;2.45;;;25.50;99.90;;;;;;5028689;28;20366;-51
2024/04/08 01:48:23;;;;;;;5.70;2.28;;;25.50;99.90;;;;;;5029388;28;20087;-52
2024/04/08 01:50:48;;;;;;;5.82;2.50;;;25.50;99.90;;;;;;5030717;28;20030;-51
2024/04/08 01:53:14;;;;;;;5.18;2.40;;;25.50;99.90;;;;;;5030821;28;20037;-51
2024/04/08 01:55:41;;;;;;;9.00;2.30;;;25.50;99.90;;;;;;5030908;28;20030;-51
2024/04/08 01:58:07;;;;;;;8.35;2.45;;;25.40;99.90;;;;;;5034317;28;20025;-51
2024/04/08 02:00:33;;;;;;;5.68;2.40;;;25.40;99.90;;;;;;5046971;22;20030;-46
2024/04/08 02:02:59;;;;;;;6.43;2.20;;;25.40;99.90;;;;;;5035594;28;20038;-49
2024/04/08 02:05:25;;;;;;;5.60;2.25;;;25.40;99.90;;;;;;5035827;28;20053;-50
2024/04/08 02:07:50;;;;;;;8.98;2.20;;;25.40;99.90;;;;;;5035518;28;20041;-50
2024/04/08 02:10:18;;;;;;;3.15;1.85;;;25.40;99.90;;;;;;5017576;28;20116;-49
2024/04/08 02:12:44;;;;;;;;;;;25.40;99.90;;;;;;5035924;28;20104;-49
2024/04/08 02:15:10;;;;;;;5.85;1.85;;;25.40;99.90;;;;;;5035530;28;20372;-49
2024/04/08 02:17:35;;;;;;;5.13;2.28;;;25.40;99.90;;;;;;5035288;28;20080;-49
2024/04/08 02:20:01;;;;;;;5.32;2.42;;;25.40;99.90;;;;;;5035234;28;20025;-49
2024/04/08 02:22:27;;;;;;;4.97;2.58;;;25.40;99.90;;;;;;5035344;28;20025;-49
2024/04/08 02:24:53;;;;;;;6.63;2.53;;;25.40;99.90;;;;;;5050684;28;20085;-49
2024/04/08 02:27:19;;;;;;;3.35;2.10;;;25.40;99.90;;;;;;5035295;28;20037;-49
2024/04/08 02:29:46;;;;;;;3.33;1.77;;;25.40;99.90;;;;;;5035142;28;20462;-49
2024/04/08 02:32:12;;;;;;;7.72;2.15;;;25.30;99.90;;;;;;5035300;28;20025;-49
2024/04/08 02:34:38;;;;;;;4.65;1.70;;;25.30;99.90;;;;;;5034063;28;20036;-49
2024/04/08 02:37:03;;;;;;;3.63;1.80;;;25.30;99.90;;;;;;5035148;28;20021;-49
2024/04/08 02:39:29;;;;;;;4.30;2.03;;;25.30;99.90;;;;;;5035307;28;20021;-49
2024/04/08 02:41:55;;;;;;;5.65;1.90;;;25.30;99.90;;;;;;5035322;28;20106;-49
2024/04/08 02:44:21;;;;;;;9.15;1.90;;;25.30;99.90;;;;;;5035188;28;20359;-49
2024/04/08 02:46:47;;;;;;;5.68;1.67;;;25.30;99.90;;;;;;5035022;28;20103;-49
2024/04/08 02:49:12;;;;;;;5.38;1.73;;;25.30;99.90;;;;;;5035057;28;20029;-49
2024/04/08 02:51:38;;;;;;;3.70;1.92;;;25.20;99.90;;;;;;5033684;28;20021;-49
2024/04/08 02:54:04;;;;;;;3.65;1.95;;;25.30;99.90;;;;;;5034904;28;20032;-49
2024/04/08 02:56:32;;;;;;;3.55;1.98;;;25.30;99.90;;;;;;5034708;28;20386;-49
2024/04/08 02:58:58;;;;;;;4.18;2.08;;;25.30;99.90;;;;;;5034970;28;20370;-49
2024/04/08 03:01:24;;;;;;;5.25;2.25;;;25.30;99.90;;;;;;5035424;28;20048;-49
2024/04/08 03:03:49;;;;;;;5.95;2.03;;;25.20;99.90;;;;;;5034700;28;20427;-49
2024/04/08 03:06:16;;;;;;;5.65;1.50;;;25.20;99.90;;;;;;5034181;28;20029;-49
2024/04/08 03:08:43;;;;;;;4.75;1.60;;;25.20;99.90;;;;;;5032920;28;20033;-49
2024/04/08 03:11:09;;;;;;;5.07;1.55;;;25.20;99.90;;;;;;5034555;28;20533;-49
2024/04/08 03:13:36;;;;;;;4.20;1.40;;;25.20;99.90;;;;;;5033316;28;20462;-49
2024/04/08 03:16:02;;;;;;;3.33;1.52;;;25.20;99.90;;;;;;5034396;28;20029;-49
2024/04/08 03:18:28;;;;;;;2.65;1.30;;;25.20;99.90;;;;;;5034557;28;20083;-49
2024/04/08 03:21:05;;;;;;;3.75;1.38;;;25.20;99.90;;;;;;5034382;28;20032;-49
2024/04/08 03:23:31;;;;;;;4.35;1.63;;;25.20;99.90;;;;;;5034225;28;20026;-49
2024/04/08 03:25:57;;;;;;;5.30;1.58;;;25.20;99.90;;;;;;5034402;28;20072;-49
2024/04/08 03:28:23;;;;;;;4.25;1.65;;;25.10;99.90;;;;;;5034072;28;20057;-49
2024/04/08 03:30:49;;;;;;;2.90;1.40;;;25.20;99.90;;;;;;5034426;28;20083;-49
2024/04/08 03:33:15;;;;;;;2.75;1.40;;;25.20;99.90;;;;;;5034286;28;20033;-49
2024/04/08 03:35:41;;;;;;;3.92;1.60;;;25.10;99.90;;;;;;5032950;28;20392;-49
2024/04/08 03:38:07;;;;;;;3.72;1.50;;;25.10;99.90;;;;;;5034179;28;20037;-50
2024/04/08 03:40:33;;;;;;;3.70;1.80;;;25.10;99.90;;;;;;5033982;28;20029;-49
2024/04/08 03:42:58;;;;;;;3.17;1.30;;;25.10;99.90;;;;;;5034154;28;20029;-49
2024/04/08 03:45:24;;;;;;;3.17;1.67;;;25.10;99.90;;;;;;5033896;28;20029;-50
2024/04/08 03:47:50;;;;;;;3.85;1.70;;;25.10;99.90;;;;;;5033909;28;20047;-50
2024/04/08 03:50:16;;;;;;;3.97;2.05;;;25.10;99.90;;;;;;5033872;28;20076;-50
2024/04/08 03:52:41;;;;;;;3.72;1.50;;;25.10;99.90;;;;;;5033765;28;20040;-49
2024/04/08 03:55:07;;;;;;;5.10;2.47;;;25.10;99.90;;;;;;5033906;28;20466;-49
2024/04/08 03:57:33;;;;;;;2.70;2.03;;;25.10;99.90;;;;;;5033761;28;20029;-49
2024/04/08 03:59:59;;;;;;;2.78;1.58;;;25.00;99.90;;;;;;5034164;28;20108;-49
2024/04/08 04:02:25;;;;;;;4.18;2.10;;;25.10;99.90;;;;;;5033594;28;20444;-49
2024/04/08 04:04:50;;;;;;;2.65;1.50;;;25.00;99.90;;;;;;5033713;28;20022;-49
2024/04/08 04:07:16;;;;;;;4.68;2.05;;;25.10;99.90;;;;;;5033355;28;20116;-49
2024/04/08 04:09:42;;;;;;;4.75;1.80;;;25.10;99.90;;;;;;5033548;28;20377;-49
2024/04/08 04:12:08;;;;;;;2.47;1.40;;;25.00;99.90;;;;;;5032209;28;20107;-49
2024/04/08 04:14:34;;;;;;;4.35;1.55;;;25.00;99.90;;;;;;5033346;28;20092;-49
2024/04/08 04:16:59;;;;;;;4.25;1.50;;;25.00;99.90;;;;;;5033577;28;20489;-49
2024/04/08 04:19:25;;;;;;;4.07;1.77;;;25.00;99.90;;;;;;5033281;28;20138;-50
2024/04/08 04:21:51;;;;;;;3.28;1.88;;;25.00;99.90;;;;;;5033295;28;20021;-49
2024/04/08 04:24:17;;;;;;;3.22;1.70;;;25.00;99.90;;;;;;5033289;28;20381;-49
2024/04/08 04:26:42;;;;;;;2.53;1.52;;;25.00;99.90;;;;;;5033321;28;20044;-49
2024/04/08 04:29:08;;;;;;;3.15;1.75;;;25.00;99.90;;;;;;5033260;28;20049;-49
2024/04/08 04:31:44;;;;;;;5.15;2.00;;;25.00;99.90;;;;;;5033230;28;20304;-51
2024/04/08 04:34:10;;;;;;;3.20;2.15;;;25.00;99.90;;;;;;5033207;28;20025;-49
2024/04/08 04:36:36;;;;;;;3.40;1.80;;;25.00;99.90;;;;;;5032903;28;20375;-48
2024/04/08 04:39:03;;;;;;;2.28;1.27;;;25.00;99.90;;;;;;5033391;28;20028;-49
2024/04/08 04:41:29;;;;;;;2.90;1.63;;;25.00;99.90;;;;;;5032837;28;20067;-49
2024/04/08 04:43:54;;;;;;;2.60;1.48;;;25.00;99.90;;;;;;5032949;28;20436;-49
2024/04/08 04:46:20;;;;;;;2.95;1.88;;;24.90;99.90;;;;;;5031560;28;20068;-50
2024/04/08 04:48:46;;;;;;;4.75;2.00;;;24.90;99.90;;;;;;5032678;28;20042;-49
2024/04/08 04:51:12;;;;;;;4.93;2.10;;;25.00;99.90;;;;;;5032734;28;20018;-49
2024/04/08 04:53:37;;;;;;;3.70;1.98;;;25.00;99.90;;;;;;5032581;28;20489;-49
2024/04/08 04:56:03;;;;;;;3.90;1.70;;;24.90;99.90;;;;;;5032953;28;20026;-49
2024/04/08 04:58:29;;;;;;;4.75;2.05;;;24.90;99.90;;;;;;5032632;28;20025;-49
2024/04/08 05:00:55;;;;;;;3.00;1.92;;;24.90;99.90;;;;;;5032400;28;20052;-49
2024/04/08 05:03:22;;;;;;;5.50;1.85;;;24.90;99.90;;;;;;5032559;28;20029;-49
2024/04/08 05:05:55;;;;;;;4.43;1.93;;;24.90;99.90;;;;;;5019454;28;20033;-49
2024/04/08 05:08:21;;;;;;;3.72;1.80;;;24.90;99.90;;;;;;5011838;28;20099;-49
2024/04/08 05:10:47;;;;;;;4.53;1.73;;;24.90;99.90;;;;;;5011012;28;20105;-49
2024/04/08 05:13:15;;;;;;;4.75;2.13;;;24.90;99.90;;;;;;5011932;28;20026;-49
2024/04/08 05:15:41;;;;;;;4.68;1.88;;;24.90;99.90;;;;;;5027070;28;20030;-49
2024/04/08 05:18:07;;;;;;;4.32;2.17;;;24.90;99.90;;;;;;5012564;28;20071;-49
2024/04/08 05:20:34;;;;;;;5.13;1.85;;;24.90;99.90;;;;;;5012754;28;20382;-49
2024/04/08 05:23:00;;;;;;;5.60;1.80;;;24.80;99.90;;;;;;5012631;28;20022;-49
2024/04/08 05:25:26;;;;;;;4.25;1.92;;;24.80;99.90;;;;;;5012556;28;20044;-49
2024/04/08 05:27:52;;;;;;;7.35;2.20;;;24.80;99.90;;;;;;5012599;28;20037;-49
2024/04/08 05:30:18;;;;;;;5.40;2.33;;;24.80;99.90;;;;;;5011847;28;20030;-50
2024/04/08 05:32:44;;;;;;;5.47;2.03;;;24.90;99.90;;;;;;5011117;28;20025;-49
2024/04/08 05:35:10;;;;;;;5.15;2.05;;;24.80;99.90;;;;;;5012467;28;20036;-49
2024/04/08 05:37:35;;;;;;;4.35;2.10;;;24.80;99.90;;;;;;5012714;28;20508;-49
2024/04/08 05:40:02;;;;;;;4.85;2.05;;;24.80;99.90;;;;;;5012373;28;20029;-49
2024/04/08 05:42:28;;;;;;;7.45;2.03;;;24.80;99.90;;;;;;5012448;28;20022;-50
2024/04/08 05:44:56;;;;;;;5.05;2.40;;;24.80;99.90;;;;;;5012371;28;20030;-49
2024/04/08 05:47:22;;;;;;;;;;;24.80;99.90;;;;;;5012709;28;20482;-49
2024/04/08 05:49:47;;;;;;;4.22;2.10;;;24.80;99.90;;;;;;5012299;28;19912;-49
2024/04/08 05:52:13;;;;;;;6.80;2.13;;;24.80;99.90;;;;;;5012234;28;20026;-49
2024/04/08 05:54:39;;;;;;;5.20;1.92;;;24.80;99.90;;;;;;5027385;28;20061;-49
2024/04/08 05:57:06;;;;;;;4.80;1.50;;;24.70;99.90;;;;;;5027669;28;20033;-49
2024/04/08 05:59:33;;;;;;;4.55;1.73;;;24.70;99.90;;;;;;5012245;28;20026;-49
2024/04/08 06:01:59;;;;;;;3.70;1.40;;;24.80;99.90;;;;;;5012047;28;20130;-49
2024/04/08 06:04:25;;;;;;;2.13;1.50;;;24.70;99.90;;;;;;5012254;28;20022;-49
2024/04/08 06:06:50;;;;;;;5.78;1.73;;;24.70;99.90;;;;;;5011993;28;20562;-49
2024/04/08 06:09:16;;;;;;;4.45;2.17;;;24.70;99.90;;;;;;5012154;28;20469;-49
2024/04/08 06:11:42;;;;;;;5.10;2.00;;;24.70;99.90;;;;;;5012198;28;20382;-49
2024/04/08 06:14:08;;;;;;;3.05;1.55;;;24.70;99.90;;;;;;5012162;28;20125;-49
2024/04/08 06:16:33;;;;;;;3.90;2.00;;;24.70;99.90;;;;;;5012120;28;20037;-49
2024/04/08 06:18:59;;;;;;;3.85;1.98;;;24.70;99.90;;;;;;5012128;28;20097;-49
2024/04/08 06:21:25;;;;;;;4.35;2.08;;;24.70;99.90;;;;;;5012013;28;20033;-50
2024/04/08 06:23:51;;;;;;;4.15;1.63;;;24.70;99.90;;;;;;5012020;28;20022;-49
2024/04/08 06:26:17;;;;;;;4.55;1.95;;;24.70;99.90;;;;;;5012064;28;20026;-49
2024/04/08 06:28:43;;;;;;;2.47;1.80;;;24.70;99.90;;;;;;5026972;28;20038;-49
2024/04/08 06:31:09;;;;;;;3.88;1.70;;;24.70;99.90;;;;;;5012067;28;20033;-49
2024/04/08 06:33:35;;;;;;;3.05;1.80;;;24.70;99.90;;;;;;5012212;28;20026;-49
2024/04/08 06:36:01;;;;;;;5.18;1.88;;;24.70;99.90;;;;;;5012064;28;20053;-49
2024/04/08 06:38:26;;;;;;;5.40;2.25;;;24.70;99.90;;;;;;5011954;28;20470;-50
2024/04/08 06:40:52;;;;;;;3.45;1.65;;;24.60;99.90;;;;;;5027144;28;20033;-49
2024/04/08 06:43:18;;;;;;;2.50;1.52;;;24.70;99.90;;;;;;5014227;28;20030;-49
2024/04/08 06:45:53;;;;;;;4.30;1.77;;;24.60;99.90;;;;;;5015300;28;20025;-49
2024/04/08 06:48:19;;;;;;;4.88;1.40;;;24.60;99.90;;;;;;5015099;28;20033;-49
2024/04/08 06:50:44;;;;;;;4.97;2.08;;;24.60;99.90;;;;;;5015265;28;20034;-49
2024/04/08 06:53:10;;;;;;;3.42;1.95;;;24.60;99.90;;;;;;5030533;28;20033;-49
2024/04/08 06:55:36;;;;;;;4.70;1.98;;;24.60;99.90;;;;;;5030472;28;20109;-49
2024/04/08 06:58:02;;;;;;;3.70;1.95;;;24.60;99.90;;;;;;5014986;28;20449;-49
2024/04/08 07:00:28;;;;;;;3.95;1.77;;;24.60;99.90;;;;;;5014860;28;20089;-48
2024/04/08 07:02:53;;;;;;;3.95;1.90;;;24.60;99.90;;;;;;5014904;28;20050;-49
2024/04/08 07:05:19;;;;;;;4.18;1.73;;;24.60;99.90;;;;;;5014941;28;20028;-49
2024/04/08 07:07:45;;;;;;;4.15;2.15;;;24.60;99.90;;;;;;5014733;28;20044;-49
2024/04/08 07:10:11;;;;;;;3.38;1.65;;;24.60;99.90;;;;;;5014981;28;20100;-49
2024/04/08 07:12:36;;;;;;;4.78;1.85;;;24.60;99.90;;;;;;5014805;28;20032;-49
2024/04/08 07:15:04;;;;;;;3.45;1.60;;;24.60;99.90;;;;;;5014744;28;20038;-48
2024/04/08 07:17:29;;;;;;;3.67;1.45;;;24.60;99.90;;;;;;5014715;28;20022;-48
2024/04/08 07:19:57;;;;;;;3.10;1.70;;;24.60;99.90;;;;;;5014795;28;20026;-49
2024/04/08 07:22:23;;;;;;;4.22;2.25;;;24.60;99.90;;;;;;5014641;28;20482;-49
2024/04/08 07:24:48;;;;;;;4.53;1.70;;;24.60;99.90;;;;;;5014528;28;20026;-49
2024/04/08 07:27:14;;;;;;;3.78;1.95;;;24.60;99.90;;;;;;5014497;28;20080;-49
2024/04/08 07:29:40;;;;;;;3.25;1.70;;;24.60;99.90;;;;;;5029883;28;20374;-49
2024/04/08 07:32:07;;;;;;;3.42;1.60;;;24.60;99.90;;;;;;5014474;28;20021;-49
2024/04/08 07:34:33;;;;;;;3.35;1.60;;;24.60;99.90;;;;;;5014406;28;20048;-49
2024/04/08 07:36:59;;;;;;;5.00;1.92;;;24.60;99.90;;;;;;5014338;28;20478;-49
2024/04/08 07:39:25;;;;;;;3.50;1.67;;;24.60;99.90;;;;;;5014199;28;20021;-49
2024/04/08 07:41:51;;;;;;;3.92;1.50;;;24.60;99.90;;;;;;5014376;28;20080;-48
2024/04/08 07:44:17;;;;;;;3.58;1.48;;;24.60;99.90;;;;;;5014126;28;20466;-48
2024/04/08 07:46:43;;;;;;;3.40;1.88;;;24.60;99.90;;;;;;5029467;28;20030;-49
2024/04/08 07:49:08;;;;;;;3.03;1.73;;;24.60;99.90;;;;;;5013868;28;20037;-48
2024/04/08 07:51:34;;;;;;;4.38;2.10;;;24.60;99.90;;;;;;5014036;28;20034;-48
2024/04/08 07:54:00;;;;;;;3.80;1.92;;;24.60;99.90;;;;;;5013633;28;20036;-48
2024/04/08 07:56:26;;;;;;;4.78;1.67;;;24.60;99.90;;;;;;5013958;28;20474;-48
2024/04/08 07:58:51;;;;;;;3.60;1.85;;;24.60;99.90;;;;;;5029225;28;20101;-49
2024/04/08 08:01:17;;;;;;;4.13;1.70;;;24.60;99.90;;;;;;5029123;28;20490;-49
2024/04/08 08:03:43;;;;;;;4.00;2.03;;;24.60;99.90;;;;;;5014250;28;20061;-49
2024/04/08 08:06:09;;;;;;;3.15;1.83;;;24.60;99.90;;;;;;5013764;28;20105;-49
2024/04/08 08:08:34;;;;;;;2.58;1.58;;;24.60;99.90;;;;;;5013572;28;20069;-48
2024/04/08 08:11:04;;;;;;;7.10;1.75;;;24.60;99.90;;;;;;5013635;28;20025;-48
2024/04/08 08:13:33;;;;;;;7.40;2.75;;;24.60;99.90;;;;;;5013566;28;20026;-49
2024/04/08 08:16:00;;;;;;;3.35;1.50;;;24.60;99.90;;;;;;5013616;28;20030;-48
2024/04/08 08:18:26;;;;;;;6.07;2.53;;;24.60;99.90;;;;;;5013514;28;20080;-48
2024/04/08 08:20:53;;;;;;;6.72;2.90;;;24.60;99.90;;;;;;5013338;28;20030;-48
2024/04/08 08:23:20;;;;;;;5.68;2.40;;;24.60;99.90;;;;;;5013450;28;20459;-48
2024/04/08 08:25:47;;;;;;;8.03;4.03;;;24.70;99.90;;;;;;5013476;28;20040;-48
2024/04/08 08:28:13;;;;;;;10.10;5.20;;;24.60;99.90;;;;;;5013683;28;20038;-49
2024/04/08 08:30:40;;;;;;;11.30;6.22;;;24.60;99.90;;;;;;5028490;28;20386;-49
2024/04/08 08:33:06;;;;;;;13.15;7.13;;;24.60;99.90;;;;;;5013427;28;20405;-48
2024/04/08 08:35:32;;;;;;;13.77;7.32;;;24.60;99.90;;;;;;5013288;28;20032;-49
2024/04/08 08:37:58;;;;;;;14.77;8.35;;;24.60;99.90;;;;;;5013309;28;20029;-49
2024/04/08 08:40:24;;;;;;;11.05;6.05;;;24.60;99.90;;;;;;5028281;28;20478;-49
2024/04/08 08:42:52;;;;;;;13.23;6.57;;;24.60;99.90;;;;;;5013155;28;20101;-49
2024/04/08 08:45:18;;;;;;;12.63;6.63;;;24.60;99.90;;;;;;5013172;28;20030;-49
2024/04/08 08:47:44;;;;;;;11.57;8.45;;;24.70;99.90;;;;;;5013154;28;20129;-48
2024/04/08 08:50:11;;;;;;;13.48;7.97;;;24.70;99.90;;;;;;5012994;28;20025;-49
2024/04/08 08:52:37;;;;;;;9.17;5.87;;;24.60;99.90;;;;;;5011600;28;20475;-49
2024/04/08 08:55:04;;;;;;;11.23;6.20;;;24.70;99.90;;;;;;5012823;28;20026;-49
2024/04/08 08:57:30;;;;;;;12.68;7.47;;;24.60;99.90;;;;;;5013011;28;20041;-49
2024/04/08 08:59:58;;;;;;;14.90;7.50;;;24.60;99.90;;;;;;5028110;28;20053;-48
2024/04/08 09:02:25;;;;;;;14.10;8.52;;;24.60;99.90;;;;;;5012608;28;20589;-48
2024/04/08 09:04:52;;;;;;;;;;;24.60;99.90;;;;;;5012364;28;20026;-48
2024/04/08 09:07:18;;;;;;;14.38;9.43;;;24.70;99.90;;;;;;5012706;28;19913;-48
2024/04/08 09:09:57;;;;;;;18.42;11.40;;;24.60;99.90;;;;;;5012986;28;20222;-48
2024/04/08 09:12:24;;;;;;;15.98;8.27;;;24.60;99.90;;;;;;5012736;28;20168;-48
2024/04/08 09:14:53;;;;;;;11.68;7.40;;;24.60;99.90;;;;;;5012731;28;20033;-48
2024/04/08 09:17:20;;;;;;;15.00;9.55;;;24.60;99.90;;;;;;5012559;28;20022;-48
2024/04/08 09:19:46;;;;;;;12.97;8.90;;;24.60;99.90;;;;;;5012645;28;20033;-48
2024/04/08 09:22:13;;;;;;;13.25;8.88;;;24.60;99.90;;;;;;5012602;28;20329;-48
2024/04/08 09:24:42;;;;;;;13.27;9.50;;;24.60;99.90;;;;;;5012554;28;20025;-48
2024/04/08 09:27:07;;;;;;;15.80;10.75;;;24.60;99.90;;;;;;5012475;28;20080;-48
2024/04/08 09:29:33;;;;;;;13.95;9.80;;;24.60;99.90;;;;;;5012399;28;20413;-48
2024/04/08 09:32:00;;;;;;;17.08;9.77;;;24.70;99.90;;;;;;5012454;28;20355;-48
2024/04/08 09:34:29;;;;;;;18.85;11.52;;;24.60;99.90;;;;;;5012490;28;20063;-48
2024/04/08 09:36:55;;;;;;;16.05;10.38;;;24.70;99.90;;;;;;5012447;28;20026;-48
2024/04/08 09:39:22;;;;;;;13.63;9.68;;;24.70;99.90;;;;;;5012421;28;20028;-48
2024/04/08 09:41:49;;;;;;;12.30;8.80;;;24.70;99.90;;;;;;5012474;28;20534;-48
2024/04/08 09:44:18;;;;;;;12.57;8.27;;;24.70;99.90;;;;;;5012599;28;20504;-48
2024/04/08 09:46:48;;;;;;;17.15;9.15;;;24.70;99.90;;;;;;5027252;28;20097;-48
2024/04/08 09:49:18;;;;;;;15.75;9.57;;;24.70;99.90;;;;;;5027392;28;20029;-48
2024/04/08 09:51:46;;;;;;;11.85;7.10;;;24.70;99.90;;;;;;5012081;28;20052;-48
2024/04/08 09:54:12;;;;;;;14.60;8.82;;;24.70;99.90;;;;;;5027273;28;20022;-48
2024/04/08 09:56:40;;;;;;;12.25;8.43;;;24.70;99.90;;;;;;5010707;28;20025;-48
2024/04/08 09:59:22;;;;;;;10.90;7.80;;;24.70;99.90;;;;;;5011972;28;20022;-49
2024/04/08 10:01:49;;;;;;;13.00;8.52;;;24.70;99.90;;;;;;5012158;28;20050;-48
2024/04/08 10:04:23;;;;;;;17.40;8.63;;;24.70;99.90;;;;;;5012133;28;20105;-48
2024/04/08 10:06:49;;;;;;;13.30;8.00;;;24.70;99.90;;;;;;5012111;28;20034;-49
2024/04/08 10:09:16;;;;;;;11.67;8.07;;;24.80;99.90;;;;;;5011870;28;20022;-48
2024/04/08 10:11:46;;;;;;;12.00;7.72;;;24.80;99.90;;;;;;5011872;28;20041;-48
2024/04/08 10:14:20;;;;;;;13.55;7.15;;;24.80;99.90;;;;;;5011943;28;20506;-48
2024/04/08 10:16:50;;;;;;;13.77;7.32;;;24.80;99.90;;;;;;5028791;28;20030;-49
2024/04/08 10:19:19;;;;;;;11.93;6.72;;;24.80;99.90;;;;;;5015683;28;20042;-49
2024/04/08 10:21:44;;;;;;;11.57;6.25;;;24.80;99.90;;;;;;5015685;28;20474;-49
2024/04/08 10:24:36;;;;;;;11.40;6.07;;;24.90;99.90;;;;;;5030821;28;20034;-49
2024/04/08 10:27:06;;;;;;;10.13;6.30;;;24.90;99.90;;;;;;5019391;28;20041;-48
2024/04/08 10:29:34;;;;;;;8.68;5.95;;;24.90;99.90;;;;;;5035263;28;20112;-49
2024/04/08 10:32:00;;;;;;;11.90;7.15;;;24.90;99.90;;;;;;5035525;28;20381;-49
2024/04/08 10:34:25;;;;;;;8.95;4.47;;;24.90;99.90;;;;;;5035178;28;20045;-49
2024/04/08 10:36:54;;;;;;;10.23;4.90;;;24.90;99.90;;;;;;5034930;28;20053;-49
2024/04/08 10:39:26;;;;;;;7.43;4.88;;;24.90;99.90;;;;;;5031276;28;20386;-49
2024/04/08 10:41:57;;;;;;;11.48;4.50;;;24.90;99.90;;;;;;5033353;28;20022;-50
2024/04/08 10:44:24;;;;;;;10.65;4.38;;;24.90;99.90;;;;;;5032649;28;20022;-50
2024/04/08 10:46:50;;;;;;;14.48;5.85;;;24.90;99.90;;;;;;5034777;28;20389;-49
2024/04/08 10:49:16;;;;;;;7.65;4.35;;;25.00;99.90;;;;;;5034466;28;20116;-49
2024/04/08 10:51:43;;;;;;;10.25;4.30;;;25.00;99.90;;;;;;5032227;28;20025;-49
2024/04/08 10:54:09;;;;;;;13.38;3.97;;;25.00;99.90;;;;;;5034307;28;20068;-49
2024/04/08 10:56:34;;;;;;;7.15;3.58;;;25.00;99.90;;;;;;5034519;28;20017;-49
2024/04/08 10:59:00;;;;;;;8.38;3.90;;;25.00;99.90;;;;;;5032608;28;20366;-49
2024/04/08 11:01:26;;;;;;;11.18;3.78;;;25.00;99.90;;;;;;5034147;28;20116;-48
2024/04/08 11:03:53;;;;;;;10.45;3.10;;;25.00;99.90;;;;;;5034040;28;20029;-48
2024/04/08 11:06:20;;;;;;;11.33;3.40;;;25.00;99.90;;;;;;5033725;28;20024;-48
2024/04/08 11:08:45;;;;;;;9.13;3.47;;;25.00;99.90;;;;;;5034534;28;20033;-49
2024/04/08 11:11:11;;;;;;;4.97;2.53;;;25.00;99.90;;;;;;5034541;28;20022;-47
2024/04/08 11:13:37;;;;;;;10.52;2.65;;;25.00;99.90;;;;;;5034499;28;20033;-48
2024/04/08 11:16:05;;;;;;;13.88;3.30;;;25.10;99.90;;;;;;5034417;28;20068;-48
2024/04/08 11:18:37;;;;;;;6.18;3.05;;;25.10;99.90;;;;;;5033023;28;20056;-48
2024/04/08 11:21:03;;;;;;;11.05;2.80;;;25.10;99.90;;;;;;5034414;28;20075;-49
2024/04/08 11:23:28;;;;;;;6.88;2.63;;;25.10;99.90;;;;;;5034301;28;20062;-49
2024/04/08 11:25:56;;;;;;;8.50;2.45;;;25.10;99.90;;;;;;5034354;28;20025;-49
2024/04/08 11:28:25;;;;;;;9.48;2.28;;;25.10;99.90;;;;;;5033509;28;20029;-49
2024/04/08 11:30:53;;;;;;;4.55;2.22;;;25.10;99.90;;;;;;5034249;28;20493;-49
2024/04/08 11:33:18;;;;;;;7.18;2.60;;;25.10;99.90;;;;;;5034205;28;20029;-49
2024/04/08 11:35:44;;;;;;;10.15;2.70;;;25.20;99.90;;;;;;5032657;28;20396;-51
2024/04/08 11:38:15;;;;;;;10.07;2.63;;;25.20;99.90;;;;;;5034122;28;20030;-49
2024/04/08 11:40:41;;;;;;;6.65;2.00;;;25.20;99.90;;;;;;5034056;28;20021;-49
2024/04/08 11:43:07;;;;;;;8.00;2.50;;;25.20;99.90;;;;;;5033923;28;20380;-49
2024/04/08 11:45:33;;;;;;;8.23;2.80;;;25.20;99.90;;;;;;5032850;28;20104;-49
2024/04/08 11:47:58;;;;;;;7.25;2.33;;;25.20;99.90;;;;;;5033658;28;20033;-49
2024/04/08 11:50:24;;;;;;;9.13;2.78;;;25.20;99.90;;;;;;5032048;28;20018;-49
2024/04/08 11:52:50;;;;;;;9.82;2.20;;;25.20;99.90;;;;;;5032066;28;20029;-50
2024/04/08 11:55:16;;;;;;;10.45;2.60;;;25.20;99.90;;;;;;5032561;28;20022;-50
2024/04/08 11:57:42;;;;;;;7.07;2.50;;;25.30;99.90;;;;;;5033855;28;20381;-49
2024/04/08 12:00:10;;;;;;;8.43;2.78;;;25.20;99.90;;;;;;5025030;28;20025;-49
2024/04/08 12:02:36;;;;;;;10.18;2.30;;;25.30;99.90;;;;;;5022404;28;20074;-50
2024/04/08 12:05:03;;;;;;;15.48;2.55;;;25.30;99.90;;;;;;5027458;28;20064;-49
2024/04/08 12:07:29;;;;;;;6.25;2.15;;;25.30;99.90;;;;;;5028810;28;20366;-50
2024/04/08 12:09:54;;;;;;;9.32;2.40;;;25.30;99.90;;;;;;5022804;28;20486;-49
2024/04/08 12:12:20;;;;;;;8.27;2.50;;;25.30;99.90;;;;;;5034107;28;20064;-48
2024/04/08 12:14:47;;;;;;;12.20;2.80;;;25.30;99.90;;;;;;5032797;28;20013;-49
2024/04/08 12:17:13;;;;;;;9.65;2.50;;;25.30;99.90;;;;;;5032135;28;20029;-49
2024/04/08 12:19:39;;;;;;;7.78;2.15;;;25.40;99.90;;;;;;5046319;28;20018;-51
2024/04/08 12:22:04;;;;;;;6.20;2.63;;;25.40;99.90;;;;;;5029146;28;20029;-50
2024/04/08 12:24:30;;;;;;;6.93;2.13;;;25.40;99.90;;;;;;5026837;28;20025;-49
2024/04/08 12:26:56;;;;;;;7.10;2.38;;;25.40;99.90;;;;;;5027435;28;20465;-49
2024/04/08 12:29:22;;;;;;;6.88;2.03;;;25.40;99.90;;;;;;5037803;28;20033;-49
2024/04/08 12:31:48;;;;;;;9.82;3.13;;;25.40;99.90;;;;;;5027155;28;20044;-49
2024/04/08 12:34:14;;;;;;;11.43;2.90;;;25.50;99.90;;;;;;5035210;28;20020;-49
2024/04/08 12:36:39;;;;;;;5.75;2.70;;;25.50;99.90;;;;;;5029277;28;20025;-49
2024/04/08 12:39:06;;;;;;;8.88;2.17;;;25.50;99.90;;;;;;5035901;28;20473;-49
2024/04/08 12:41:31;;;;;;;10.05;2.83;;;25.50;99.90;;;;;;5021887;28;20378;-49